Time;durP1;ratioP1;P1;durP2;ratioP2;P2;SDS_P1;SDS_P2;PMS_P1;PMS_P2;Temp;Humidity;BMP_temperature;BMP_pressure;BME280_temperature;BME280_humidity;BME280_pressure;Samples;Min_cycle;Max_cycle;Signal;HPM_P1;HPM_P2
2021/03/18 00:01:38;;;;;;;14.82;7.00;;;8.10;63.70;;;;;;5051225;28;20098;-76
2021/03/18 00:04:06;;;;;;;10.30;6.75;;;8.10;63.80;;;;;;5067615;28;20215;-78
2021/03/18 00:06:33;;;;;;;14.43;7.50;;;8.10;63.80;;;;;;5048597;28;20074;-77
2021/03/18 00:08:59;;;;;;;12.88;7.00;;;8.00;63.70;;;;;;5065621;28;20028;-77
2021/03/18 00:11:26;;;;;;;12.07;6.13;;;8.00;63.70;;;;;;5066800;28;20047;-77
2021/03/18 00:13:52;;;;;;;10.77;6.15;;;8.00;63.80;;;;;;5047885;28;20033;-78
2021/03/18 00:16:18;;;;;;;14.18;7.38;;;8.00;63.80;;;;;;5065613;28;20054;-77
2021/03/18 00:18:50;;;;;;;12.45;7.55;;;7.90;63.70;;;;;;5064471;28;20021;-78
2021/03/18 00:21:17;;;;;;;12.40;6.45;;;7.90;63.80;;;;;;5065832;28;20111;-77
2021/03/18 00:23:43;;;;;;;11.93;6.40;;;7.90;63.80;;;;;;5067588;28;20408;-77
2021/03/18 00:26:10;;;;;;;13.10;7.25;;;7.80;63.70;;;;;;5065395;28;20028;-77
2021/03/18 00:28:36;;;;;;;12.25;7.00;;;7.80;63.70;;;;;;5065669;28;20393;-78
2021/03/18 00:31:04;;;;;;;16.50;7.10;;;7.70;63.60;;;;;;5049483;28;20043;-77
2021/03/18 00:33:30;;;;;;;15.00;6.88;;;7.70;63.70;;;;;;5049069;28;20073;-78
2021/03/18 00:35:57;;;;;;;13.75;6.85;;;7.70;64.20;;;;;;5065936;28;20060;-77
2021/03/18 00:38:25;;;;;;;12.52;6.63;;;7.70;63.80;;;;;;5064424;28;20468;-77
2021/03/18 00:40:55;;;;;;;11.88;6.70;;;7.60;63.60;;;;;;5066014;28;20153;-77
2021/03/18 00:43:22;;;;;;;12.13;6.85;;;7.60;63.70;;;;;;5031299;28;20028;-78
2021/03/18 00:45:50;;;;;;;12.15;6.60;;;7.60;63.70;;;;;;5048979;28;20044;-78
2021/03/18 00:48:19;;;;;;;10.40;6.65;;;7.50;63.60;;;;;;5047662;28;20154;-77
2021/03/18 00:50:48;;;;;;;13.05;6.57;;;7.50;63.60;;;;;;5064582;28;20024;-77
2021/03/18 00:53:21;;;;;;;14.43;5.70;;;7.50;63.70;;;;;;5047190;28;20033;-77
2021/03/18 00:55:48;;;;;;;13.30;7.47;;;7.50;63.80;;;;;;5063790;28;20541;-76
2021/03/18 00:58:15;;;;;;;15.25;7.38;;;7.50;63.80;;;;;;5047053;28;20120;-77
2021/03/18 01:00:45;;;;;;;11.70;6.20;;;7.40;63.60;;;;;;5063825;28;20028;-77
2021/03/18 01:03:12;;;;;;;10.65;5.97;;;7.40;63.70;;;;;;5063939;28;20415;-77
2021/03/18 01:05:54;;;;;;;15.98;7.72;;;7.40;63.70;;;;;;5063462;28;20132;-76
2021/03/18 01:08:25;;;;;;;9.90;7.07;;;7.30;63.60;;;;;;5063308;28;20044;-76
2021/03/18 01:11:11;;;;;;;12.27;7.28;;;7.30;63.60;;;;;;5063779;28;20082;-77
2021/03/18 01:13:41;;;;;;;12.27;8.05;;;7.30;63.60;;;;;;5049398;28;20029;-77
2021/03/18 01:16:11;;;;;;;16.83;6.57;;;7.20;63.50;;;;;;5075190;28;20028;-76
2021/03/18 01:18:44;;;;;;;13.70;6.53;;;7.20;63.50;;;;;;5080311;28;20028;-77
2021/03/18 01:21:11;;;;;;;12.73;6.18;;;7.20;63.60;;;;;;5064729;28;20033;-76
2021/03/18 01:23:38;;;;;;;13.75;7.00;;;7.20;63.60;;;;;;5047268;28;20020;-77
2021/03/18 01:26:06;;;;;;;10.05;6.68;;;7.20;63.70;;;;;;5046978;28;20036;-76
2021/03/18 01:28:33;;;;;;;11.88;7.30;;;7.10;64.10;;;;;;5063679;28;20094;-77
2021/03/18 01:30:59;;;;;;;12.50;6.43;;;7.10;63.60;;;;;;5063429;28;20029;-77
2021/03/18 01:33:25;;;;;;;12.20;6.80;;;7.10;63.60;;;;;;5064962;28;20040;-77
2021/03/18 01:35:52;;;;;;;16.50;6.65;;;7.10;63.60;;;;;;5063494;28;20036;-77
2021/03/18 01:38:18;;;;;;;12.23;7.53;;;7.00;63.50;;;;;;5063417;28;20142;-76
2021/03/18 01:40:44;;;;;;;10.55;6.53;;;7.00;63.60;;;;;;5063756;28;20050;-77
2021/03/18 01:43:10;;;;;;;13.70;8.18;;;7.00;63.60;;;;;;5063689;28;20099;-76
2021/03/18 01:45:37;;;;;;;10.00;6.70;;;7.00;63.60;;;;;;5046904;28;20058;-77
2021/03/18 01:48:04;;;;;;;11.77;7.82;;;6.90;63.50;;;;;;5046574;28;20435;-76
2021/03/18 01:50:34;;;;;;;13.20;7.07;;;6.90;63.50;;;;;;5062981;28;20466;-76
2021/03/18 01:53:01;;;;;;;11.27;6.32;;;6.90;63.60;;;;;;5066237;28;20029;-77
2021/03/18 01:55:30;;;;;;;12.43;6.90;;;6.90;63.60;;;;;;5067498;28;20428;-77
2021/03/18 01:57:57;;;;;;;14.02;6.93;;;6.80;63.40;;;;;;5067015;28;20048;-78
2021/03/18 02:00:25;;;;;;;10.50;6.65;;;6.80;63.50;;;;;;5051300;28;20028;-77
2021/03/18 02:02:51;;;;;;;10.38;6.82;;;6.80;63.50;;;;;;5050774;28;20399;-77
2021/03/18 02:05:18;;;;;;;13.82;6.65;;;6.80;63.50;;;;;;5068901;28;20021;-77
2021/03/18 02:07:44;;;;;;;15.13;7.15;;;6.70;63.40;;;;;;5068492;28;20590;-78
2021/03/18 02:10:11;;;;;;;9.00;6.45;;;6.70;63.40;;;;;;5068369;28;20116;-77
2021/03/18 02:12:37;;;;;;;10.93;6.55;;;6.70;63.50;;;;;;5052370;28;20089;-77
2021/03/18 02:15:07;;;;;;;9.32;5.93;;;6.60;63.30;;;;;;5084648;28;20491;-77
2021/03/18 02:18:05;;;;;;;11.80;7.47;;;6.60;63.40;;;;;;5087226;28;20036;-77
2021/03/18 02:20:53;;;;;;;10.00;7.05;;;6.60;63.40;;;;;;5068356;28;20342;-78
2021/03/18 02:23:47;;;;;;;11.02;6.18;;;6.60;63.40;;;;;;5068888;28;20554;-76
2021/03/18 02:26:28;;;;;;;13.00;6.00;;;6.60;63.50;;;;;;5067155;28;20144;-77
2021/03/18 02:29:12;;;;;;;12.82;6.68;;;6.50;63.30;;;;;;5050079;28;20392;-77
2021/03/18 02:32:03;;;;;;;9.50;6.05;;;6.40;63.20;;;;;;5068751;28;20403;-76
2021/03/18 02:34:38;;;;;;;11.77;7.22;;;6.50;63.40;;;;;;5068193;28;20059;-77
2021/03/18 02:37:10;;;;;;;16.10;5.97;;;6.40;63.30;;;;;;5051394;28;20032;-77
2021/03/18 02:39:57;;;;;;;10.75;6.68;;;6.40;63.30;;;;;;5069637;28;20052;-77
2021/03/18 02:42:24;;;;;;;14.55;7.28;;;6.40;63.30;;;;;;5068494;28;20048;-77
2021/03/18 02:44:55;;;;;;;8.82;6.50;;;6.40;63.30;;;;;;5052075;28;20244;-77
2021/03/18 02:47:25;;;;;;;11.98;7.18;;;6.40;63.40;;;;;;5071737;28;20116;-77
2021/03/18 02:49:53;;;;;;;9.75;7.35;;;6.30;63.30;;;;;;5087790;28;20089;-78
2021/03/18 02:52:22;;;;;;;10.40;6.22;;;6.30;63.30;;;;;;5070848;28;20310;-77
2021/03/18 02:54:53;;;;;;;10.45;6.43;;;6.30;63.30;;;;;;5072108;28;20042;-78
2021/03/18 02:57:21;;;;;;;13.27;6.90;;;6.30;63.40;;;;;;5070504;28;20053;-76
2021/03/18 02:59:49;;;;;;;14.80;6.32;;;6.30;63.40;;;;;;5072204;28;20033;-77
2021/03/18 03:02:25;;;;;;;12.02;7.25;;;6.20;63.20;;;;;;5072247;28;20132;-77
2021/03/18 03:04:53;;;;;;;13.10;7.93;;;6.20;63.30;;;;;;5072064;28;20518;-78
2021/03/18 03:07:22;;;;;;;13.73;7.07;;;6.20;63.30;;;;;;5071011;28;20108;-78
2021/03/18 03:09:49;;;;;;;13.80;7.10;;;6.10;63.20;;;;;;5070569;28;20060;-77
2021/03/18 03:12:17;;;;;;;12.07;7.15;;;6.10;63.20;;;;;;5069981;28;20032;-77
2021/03/18 03:14:45;;;;;;;11.60;7.28;;;6.10;63.20;;;;;;5070805;28;20028;-77
2021/03/18 03:17:13;;;;;;;9.93;7.22;;;6.10;63.30;;;;;;5073576;28;20154;-76
2021/03/18 03:19:41;;;;;;;9.40;6.78;;;6.00;63.10;;;;;;5090466;28;20506;-76
2021/03/18 03:27:14;;;;;;;12.65;7.25;;;6.00;63.20;;;;;;5192382;23;20404;-80
2021/03/18 03:29:45;;;;;;;17.02;7.75;;;6.00;63.30;;;;;;5006860;28;20026;-79
2021/03/18 03:32:12;;;;;;;15.43;7.20;;;5.90;63.10;;;;;;5012555;28;20034;-80
2021/03/18 03:34:40;;;;;;;12.73;7.63;;;5.90;63.20;;;;;;5012074;28;20489;-81
2021/03/18 03:37:08;;;;;;;12.73;7.15;;;5.90;63.20;;;;;;5012448;28;20480;-81
2021/03/18 03:39:35;;;;;;;17.08;8.13;;;5.90;63.20;;;;;;5011881;28;20037;-80
2021/03/18 03:42:03;;;;;;;11.20;7.50;;;5.80;63.00;;;;;;5013633;28;20049;-81
2021/03/18 03:44:29;;;;;;;10.85;7.72;;;5.80;63.10;;;;;;5013350;28;20025;-80
2021/03/18 03:46:55;;;;;;;14.38;8.32;;;5.80;63.10;;;;;;5012256;28;20034;-81
2021/03/18 03:49:22;;;;;;;10.10;7.25;;;5.80;63.10;;;;;;5013215;28;20025;-80
2021/03/18 03:51:56;;;;;;;10.43;6.97;;;5.70;63.00;;;;;;5013218;28;20121;-80
2021/03/18 03:54:23;;;;;;;18.25;8.05;;;5.70;63.00;;;;;;5013519;28;20425;-80
2021/03/18 03:57:25;;;;;;;12.80;8.25;;;5.70;63.10;;;;;;5012087;28;20473;-80
2021/03/18 03:59:56;;;;;;;11.65;6.50;;;5.70;63.10;;;;;;5008191;28;20037;-80
2021/03/18 04:02:25;;;;;;;11.63;6.88;;;5.60;62.90;;;;;;5013383;28;20056;-80
2021/03/18 04:04:52;;;;;;;15.80;7.38;;;5.60;63.00;;;;;;5011938;28;20062;-80
2021/03/18 04:07:22;;;;;;;13.90;7.43;;;5.60;63.00;;;;;;5011915;28;20033;-80
2021/03/18 04:09:50;;;;;;;10.95;7.57;;;5.60;63.20;;;;;;5011875;28;20021;-81
2021/03/18 04:12:19;;;;;;;13.02;7.97;;;5.60;63.70;;;;;;5012603;28;20489;-80
2021/03/18 04:14:54;;;;;;;10.45;7.28;;;5.50;63.10;;;;;;5010997;28;20481;-80
2021/03/18 04:17:21;;;;;;;9.45;7.60;;;5.50;63.20;;;;;;5011401;28;20030;-79
2021/03/18 04:19:51;;;;;;;11.57;8.27;;;5.50;63.20;;;;;;4994880;28;20026;-79
2021/03/18 04:22:20;;;;;;;12.98;7.13;;;5.50;63.20;;;;;;5011410;28;20121;-79
2021/03/18 04:24:51;;;;;;;10.68;7.20;;;5.50;63.20;;;;;;5011074;28;20026;-79
2021/03/18 04:27:18;;;;;;;10.50;7.38;;;5.50;63.20;;;;;;5010975;28;20045;-79
2021/03/18 04:29:46;;;;;;;16.23;8.65;;;5.50;63.20;;;;;;5012347;28;20080;-78
2021/03/18 04:32:14;;;;;;;14.60;7.85;;;5.50;63.20;;;;;;4994675;28;20025;-79
2021/03/18 04:34:42;;;;;;;10.60;7.45;;;5.50;63.20;;;;;;5011038;28;20033;-80
2021/03/18 04:37:10;;;;;;;13.68;7.85;;;5.50;63.30;;;;;;5011174;28;20116;-79
2021/03/18 04:39:38;;;;;;;8.43;6.80;;;5.40;63.10;;;;;;5012017;28;20036;-79
2021/03/18 04:42:06;;;;;;;14.73;7.38;;;5.50;63.30;;;;;;5011024;28;20046;-80
2021/03/18 04:44:33;;;;;;;10.52;7.13;;;5.50;63.30;;;;;;4994488;28;20129;-79
2021/03/18 04:47:00;;;;;;;14.05;7.35;;;5.40;63.20;;;;;;5012554;28;20061;-79
2021/03/18 04:49:27;;;;;;;10.93;6.75;;;5.40;63.20;;;;;;4994716;28;20389;-79
2021/03/18 04:51:54;;;;;;;13.52;6.80;;;5.40;63.20;;;;;;5011758;28;20025;-79
2021/03/18 04:54:21;;;;;;;9.90;7.00;;;5.40;63.20;;;;;;5010686;28;20370;-79
2021/03/18 04:56:48;;;;;;;11.80;8.15;;;5.40;63.20;;;;;;5003579;28;20045;-78
2021/03/18 04:59:16;;;;;;;11.48;7.05;;;5.40;63.30;;;;;;4999327;28;20049;-81
2021/03/18 05:01:48;;;;;;;11.65;7.97;;;5.30;63.20;;;;;;4990677;28;20386;-80
2021/03/18 05:04:17;;;;;;;9.68;6.72;;;5.30;63.20;;;;;;4992495;28;20046;-79
2021/03/18 05:06:47;;;;;;;12.80;7.05;;;5.30;63.20;;;;;;4992246;28;20083;-79
2021/03/18 05:09:14;;;;;;;11.85;7.05;;;5.20;63.10;;;;;;4992191;28;20034;-80
2021/03/18 05:11:41;;;;;;;12.05;7.55;;;5.20;63.10;;;;;;4992101;28;20190;-80
2021/03/18 05:14:08;;;;;;;13.48;7.50;;;5.20;63.10;;;;;;4992023;28;20384;-80
2021/03/18 05:16:35;;;;;;;10.13;7.18;;;5.20;63.10;;;;;;5004531;28;20064;-79
2021/03/18 05:19:04;;;;;;;10.48;6.97;;;5.20;63.10;;;;;;5010511;28;20022;-79
2021/03/18 05:21:31;;;;;;;14.88;7.88;;;5.20;63.20;;;;;;5010373;28;20488;-79
2021/03/18 05:23:59;;;;;;;10.93;6.85;;;5.10;63.10;;;;;;5011485;28;20088;-79
2021/03/18 05:26:25;;;;;;;12.98;7.28;;;5.10;63.10;;;;;;5011347;28;20050;-78
2021/03/18 05:28:51;;;;;;;8.50;6.40;;;5.10;63.10;;;;;;4993604;28;20026;-79
2021/03/18 05:31:17;;;;;;;9.63;6.80;;;5.10;63.10;;;;;;5011708;28;20357;-79
2021/03/18 05:33:43;;;;;;;11.27;7.25;;;5.10;63.10;;;;;;5010291;28;20080;-79
2021/03/18 05:36:09;;;;;;;9.90;6.13;;;5.10;63.10;;;;;;5010482;28;20397;-79
2021/03/18 05:38:35;;;;;;;10.48;7.22;;;5.00;63.00;;;;;;5011445;28;20125;-79
2021/03/18 05:41:01;;;;;;;12.30;6.95;;;5.00;63.00;;;;;;4993484;28;20064;-79
2021/03/18 05:43:27;;;;;;;10.05;6.55;;;5.00;63.00;;;;;;5011284;28;20037;-79
2021/03/18 05:45:53;;;;;;;9.13;6.88;;;5.00;63.00;;;;;;5001695;28;20359;-78
2021/03/18 05:48:20;;;;;;;7.82;6.53;;;5.00;63.10;;;;;;4977725;28;20038;-79
2021/03/18 05:50:47;;;;;;;16.33;7.82;;;4.90;62.90;;;;;;4967572;28;20671;-79
2021/03/18 05:53:15;;;;;;;11.07;7.70;;;4.90;63.00;;;;;;4969085;28;20035;-79
2021/03/18 05:55:42;;;;;;;11.27;6.30;;;4.90;62.90;;;;;;4968805;28;20128;-79
2021/03/18 05:58:08;;;;;;;8.88;6.75;;;4.90;63.00;;;;;;4973920;28;20362;-78
2021/03/18 06:00:36;;;;;;;10.50;6.53;;;4.90;63.00;;;;;;5003019;28;20565;-78
2021/03/18 06:03:02;;;;;;;10.68;7.85;;;4.80;62.80;;;;;;4962806;28;20362;-79
2021/03/18 06:05:28;;;;;;;10.90;7.60;;;4.80;62.90;;;;;;4966657;28;20034;-80
2021/03/18 06:07:54;;;;;;;13.20;7.30;;;4.80;62.90;;;;;;4970834;28;20041;-79
2021/03/18 06:10:23;;;;;;;13.93;7.20;;;4.80;62.90;;;;;;4987275;28;20030;-79
2021/03/18 06:12:51;;;;;;;10.95;7.18;;;4.80;63.00;;;;;;4969798;28;20034;-79
2021/03/18 06:15:18;;;;;;;9.95;7.05;;;4.80;63.00;;;;;;4987444;28;20497;-79
2021/03/18 06:17:44;;;;;;;12.43;6.68;;;4.80;63.00;;;;;;4983970;28;20037;-80
2021/03/18 06:20:15;;;;;;;9.20;6.47;;;4.80;63.00;;;;;;4965845;28;20085;-80
2021/03/18 06:22:44;;;;;;;9.90;6.65;;;4.80;63.00;;;;;;4973030;28;20030;-80
2021/03/18 06:25:22;;;;;;;9.98;6.60;;;4.80;63.00;;;;;;4987230;28;20027;-82
2021/03/18 06:27:49;;;;;;;10.43;6.80;;;4.70;62.90;;;;;;5001377;28;20386;-82
2021/03/18 06:30:16;;;;;;;10.32;7.13;;;4.80;63.00;;;;;;4985037;28;20057;-82
2021/03/18 06:32:42;;;;;;;9.90;7.05;;;4.80;63.10;;;;;;4984994;28;20027;-83
2021/03/18 06:35:11;;;;;;;12.00;6.70;;;4.80;63.10;;;;;;4986558;28;20053;-83
2021/03/18 06:37:37;;;;;;;8.52;5.93;;;4.80;63.10;;;;;;4986571;28;20548;-80
2021/03/18 06:40:19;;;;;;;10.27;6.32;;;4.80;63.20;;;;;;4989771;28;20026;-81
2021/03/18 06:42:53;;;;;;;11.00;6.32;;;4.90;63.70;;;;;;4981353;28;20039;-79
2021/03/18 06:45:20;;;;;;;;;;;5.00;63.80;;;;;;4970126;28;20031;-79
2021/03/18 06:47:53;;;;;;;10.90;6.22;;;5.00;63.50;;;;;;4970654;28;19914;-78
2021/03/18 06:50:25;;;;;;;9.38;5.82;;;5.10;63.50;;;;;;4970609;28;20159;-78
2021/03/18 06:52:51;;;;;;;9.52;6.10;;;5.20;63.60;;;;;;4969450;28;20039;-83
2021/03/18 06:55:30;;;;;;;10.32;7.07;;;5.10;63.30;;;;;;4969499;28;20077;-80
2021/03/18 06:58:17;;;;;;;11.80;7.28;;;5.20;63.60;;;;;;4975422;28;20026;-90
2021/03/18 07:00:48;;;;;;;12.38;8.05;;;5.20;63.60;;;;;;4988427;28;20034;-80
2021/03/18 07:03:43;;;;;;;11.98;7.13;;;5.20;63.70;;;;;;4972089;28;20197;-78
2021/03/18 07:06:26;;;;;;;9.45;7.28;;;5.30;64.10;;;;;;4976270;28;20038;-80
2021/03/18 07:09:03;;;;;;;10.20;7.53;;;5.40;64.20;;;;;;4988327;28;20092;-80
2021/03/18 07:11:34;;;;;;;16.92;7.40;;;5.40;64.10;;;;;;4989147;28;20563;-79
2021/03/18 07:14:00;;;;;;;10.18;6.25;;;5.50;64.20;;;;;;4986092;28;20030;-79
2021/03/18 07:16:42;;;;;;;11.25;7.32;;;5.50;64.20;;;;;;5006444;28;20048;-89
2021/03/18 07:19:08;;;;;;;15.23;7.13;;;5.60;64.40;;;;;;4978918;28;20033;-78
2021/03/18 07:21:36;;;;;;;8.88;6.60;;;5.60;64.40;;;;;;4969889;28;20090;-78
2021/03/18 07:24:03;;;;;;;14.48;7.65;;;5.70;64.70;;;;;;4969510;28;20027;-78
2021/03/18 07:26:37;;;;;;;13.90;7.90;;;5.80;64.90;;;;;;4972873;28;21263;-79
2021/03/18 07:29:19;;;;;;;;;;;5.90;65.00;;;;;;4981860;28;20058;-79
2021/03/18 07:31:47;;;;;;;12.32;6.57;;;5.90;64.80;;;;;;4989997;28;20375;-81
2021/03/18 07:34:13;;;;;;;14.18;7.03;;;6.00;64.70;;;;;;4983749;28;20062;-81
2021/03/18 07:36:40;;;;;;;13.18;8.45;;;6.10;64.90;;;;;;4987424;28;20139;-81
2021/03/18 07:39:08;;;;;;;13.95;7.55;;;6.10;64.90;;;;;;4975408;28;20046;-83
2021/03/18 07:41:35;;;;;;;14.52;8.70;;;6.20;65.10;;;;;;4968831;28;20035;-84
2021/03/18 07:44:02;;;;;;;14.70;7.97;;;6.30;65.30;;;;;;4968262;28;20034;-82
2021/03/18 07:46:30;;;;;;;11.90;7.68;;;6.30;65.20;;;;;;4968011;28;20113;-83
2021/03/18 07:49:00;;;;;;;12.63;8.60;;;6.40;65.40;;;;;;4979377;28;20034;-81
2021/03/18 07:51:29;;;;;;;16.60;8.82;;;6.40;65.40;;;;;;4987087;28;20034;-81
2021/03/18 07:53:58;;;;;;;15.48;8.48;;;6.50;65.40;;;;;;4971608;28;20026;-82
2021/03/18 07:56:25;;;;;;;13.45;8.02;;;6.60;65.60;;;;;;4987086;28;20443;-82
2021/03/18 07:58:54;;;;;;;15.23;9.02;;;6.70;65.70;;;;;;4988802;28;20030;-82
2021/03/18 08:01:47;;;;;;;11.50;8.38;;;6.80;65.80;;;;;;4988073;28;20093;-81
2021/03/18 08:04:14;;;;;;;14.60;8.88;;;6.90;65.90;;;;;;4983494;28;20038;-82
2021/03/18 08:06:41;;;;;;;15.65;8.60;;;7.00;65.90;;;;;;4988419;28;20393;-82
2021/03/18 08:09:09;;;;;;;16.77;9.38;;;7.10;65.90;;;;;;4988626;28;20386;-82
2021/03/18 08:11:36;;;;;;;15.68;8.75;;;7.20;66.00;;;;;;4988750;28;20045;-82
2021/03/18 08:14:07;;;;;;;16.85;8.52;;;7.20;65.90;;;;;;4988160;28;20069;-82
2021/03/18 08:16:34;;;;;;;13.35;8.57;;;7.30;66.00;;;;;;5003366;28;20374;-81
2021/03/18 08:19:02;;;;;;;18.23;9.30;;;7.40;66.10;;;;;;4988078;28;20073;-81
2021/03/18 08:21:54;;;;;;;15.23;8.98;;;7.40;66.00;;;;;;4988258;28;20038;-81
2021/03/18 08:24:20;;;;;;;15.35;8.80;;;7.50;66.20;;;;;;4984988;28;20035;-79
2021/03/18 08:26:51;;;;;;;14.50;9.40;;;7.60;66.20;;;;;;4987279;28;20176;-80
2021/03/18 08:29:26;;;;;;;19.48;8.90;;;7.70;66.40;;;;;;4980796;28;20088;-79
2021/03/18 08:31:54;;;;;;;19.20;9.32;;;7.80;66.60;;;;;;4997900;28;20432;-79
2021/03/18 08:34:40;;;;;;;19.02;9.60;;;7.90;66.60;;;;;;4990666;28;20030;-78
2021/03/18 08:37:06;;;;;;;16.80;8.90;;;8.00;66.70;;;;;;5007742;28;20030;-79
2021/03/18 08:39:47;;;;;;;17.10;8.88;;;8.10;66.70;;;;;;4990692;28;20101;-82
2021/03/18 08:42:29;;;;;;;21.58;8.88;;;8.20;67.40;;;;;;4986497;28;20065;-82
2021/03/18 08:44:57;;;;;;;15.82;7.93;;;8.30;66.90;;;;;;4970637;28;20035;-81
2021/03/18 08:47:47;;;;;;;16.05;9.40;;;8.40;66.90;;;;;;4987718;28;20034;-80
2021/03/18 08:50:25;;;;;;;18.65;8.15;;;8.50;67.00;;;;;;4987538;28;20037;-83
2021/03/18 08:52:56;;;;;;;12.90;7.88;;;8.60;67.10;;;;;;4985187;28;20057;-80
2021/03/18 08:55:43;;;;;;;14.48;8.07;;;8.70;67.10;;;;;;4985773;28;20082;-81
2021/03/18 08:58:10;;;;;;;16.58;8.30;;;8.80;67.30;;;;;;4985673;28;20109;-82
2021/03/18 09:00:37;;;;;;;14.48;7.82;;;8.90;67.20;;;;;;4986755;28;20572;-81
2021/03/18 09:03:05;;;;;;;10.45;6.93;;;9.00;67.30;;;;;;4987475;28;20045;-82
2021/03/18 09:05:32;;;;;;;14.68;8.43;;;9.00;67.20;;;;;;4985330;28;20094;-83
2021/03/18 09:08:00;;;;;;;11.05;7.53;;;9.10;67.30;;;;;;4972598;28;20481;-80
2021/03/18 09:10:32;;;;;;;16.70;8.48;;;9.30;67.60;;;;;;4945480;28;20157;-82
2021/03/18 09:13:03;;;;;;;14.10;6.93;;;9.40;67.70;;;;;;4960067;28;20782;-81
2021/03/18 09:15:34;;;;;;;14.93;8.57;;;9.50;67.70;;;;;;4958795;28;21388;-83
2021/03/18 09:18:22;;;;;;;19.05;9.30;;;9.60;67.80;;;;;;4961609;28;20578;-81
2021/03/18 09:21:02;;;;;;;13.82;7.38;;;9.80;68.00;;;;;;4945775;28;20093;-85
2021/03/18 09:23:37;;;;;;;16.38;8.30;;;9.90;67.90;;;;;;4963445;28;20034;-82
2021/03/18 09:26:09;;;;;;;13.32;7.60;;;10.00;67.80;;;;;;4959562;28;20046;-82
2021/03/18 09:28:38;;;;;;;19.25;8.60;;;10.20;68.00;;;;;;4959798;28;20075;-83
2021/03/18 09:31:04;;;;;;;17.98;8.18;;;10.30;68.00;;;;;;4960600;28;20474;-82
2021/03/18 09:33:37;;;;;;;21.60;8.27;;;10.40;67.90;;;;;;4961410;28;20117;-82
2021/03/18 09:36:18;;;;;;;16.23;8.27;;;10.50;67.90;;;;;;4963141;28;20030;-82
2021/03/18 09:39:00;;;;;;;16.05;8.45;;;10.60;68.00;;;;;;4963661;28;20408;-84
2021/03/18 09:41:29;;;;;;;21.75;8.48;;;10.70;68.00;;;;;;4945578;28;20180;-82
2021/03/18 09:44:12;;;;;;;16.95;9.07;;;10.80;68.00;;;;;;4931413;28;20488;-83
2021/03/18 09:46:41;;;;;;;17.73;7.80;;;11.00;68.10;;;;;;4963807;28;20038;-82
2021/03/18 09:49:08;;;;;;;16.10;8.20;;;11.10;68.10;;;;;;4946889;28;20616;-82
2021/03/18 09:51:40;;;;;;;17.88;7.72;;;11.20;68.10;;;;;;4962119;28;20048;-83
2021/03/18 09:54:08;;;;;;;12.75;7.72;;;11.30;68.00;;;;;;4980773;28;20551;-83
2021/03/18 09:56:39;;;;;;;13.77;6.80;;;11.50;68.10;;;;;;4981518;28;20030;-83
2021/03/18 09:59:13;;;;;;;17.63;7.50;;;11.60;68.00;;;;;;4964694;28;20330;-82
2021/03/18 10:01:40;;;;;;;12.88;7.35;;;11.70;68.00;;;;;;4963535;28;20197;-82
2021/03/18 10:04:18;;;;;;;18.83;8.55;;;11.80;67.90;;;;;;4963175;28;20071;-84
2021/03/18 10:06:51;;;;;;;20.60;8.93;;;11.90;67.80;;;;;;4974110;28;20042;-84
2021/03/18 10:09:25;;;;;;;13.10;7.32;;;12.00;67.80;;;;;;4955081;28;20026;-86
2021/03/18 10:11:54;;;;;;;19.10;7.93;;;12.10;67.80;;;;;;4941950;28;20065;-84
2021/03/18 10:14:44;;;;;;;17.65;7.43;;;12.20;67.70;;;;;;4963899;28;20420;-83
2021/03/18 10:17:14;;;;;;;18.75;7.90;;;12.20;67.50;;;;;;4959299;28;20105;-83
2021/03/18 10:19:49;;;;;;;15.70;7.82;;;12.30;67.50;;;;;;4963791;28;20300;-84
2021/03/18 10:22:17;;;;;;;21.85;8.48;;;12.30;67.20;;;;;;4966278;28;20042;-83
2021/03/18 10:24:43;;;;;;;17.15;8.80;;;12.30;67.10;;;;;;4979318;28;20323;-83
2021/03/18 10:27:14;;;;;;;17.70;8.02;;;12.30;66.90;;;;;;4966042;28;20054;-84
2021/03/18 10:29:44;;;;;;;19.38;7.70;;;12.40;66.90;;;;;;4964399;28;20038;-84
2021/03/18 10:32:18;;;;;;;19.25;8.70;;;12.40;67.40;;;;;;4948872;28;20101;-83
2021/03/18 10:34:55;;;;;;;18.73;8.35;;;12.40;66.80;;;;;;4963600;28;20034;-83
2021/03/18 10:37:43;;;;;;;17.45;8.18;;;12.40;66.60;;;;;;4964683;28;20509;-83
2021/03/18 10:40:17;;;;;;;16.38;7.95;;;12.50;66.70;;;;;;4963776;28;20022;-84
2021/03/18 10:42:46;;;;;;;13.60;7.93;;;12.50;66.70;;;;;;4961943;28;20121;-87
2021/03/18 10:45:33;;;;;;;15.52;8.00;;;12.60;66.80;;;;;;4963799;28;20023;-83
2021/03/18 10:48:07;;;;;;;16.08;7.35;;;12.70;66.80;;;;;;4965785;28;20423;-82
2021/03/18 10:50:35;;;;;;;13.27;7.15;;;12.80;66.70;;;;;;4963494;28;20049;-83
2021/03/18 10:53:04;;;;;;;18.95;7.72;;;12.90;66.70;;;;;;4978563;28;20480;-84
2021/03/18 10:55:38;;;;;;;14.65;7.35;;;13.00;66.70;;;;;;4948266;28;21132;-83
2021/03/18 10:58:09;;;;;;;22.30;8.85;;;13.10;66.60;;;;;;4950159;28;20038;-83
2021/03/18 11:00:38;;;;;;;21.88;8.05;;;13.20;67.10;;;;;;4963985;28;20039;-84
2021/03/18 11:03:15;;;;;;;18.60;7.65;;;13.30;66.50;;;;;;4946839;28;20121;-87
2021/03/18 11:05:48;;;;;;;20.00;8.05;;;13.50;66.40;;;;;;4960912;28;20866;-85
2021/03/18 11:08:16;;;;;;;20.33;7.45;;;13.60;66.30;;;;;;4947074;28;20035;-84
2021/03/18 11:10:50;;;;;;;21.75;8.00;;;13.80;66.40;;;;;;4946114;28;20034;-85
2021/03/18 11:13:26;;;;;;;15.85;6.97;;;13.90;66.10;;;;;;4964055;28;20038;-80
2021/03/18 11:15:58;;;;;;;21.30;7.35;;;14.10;66.10;;;;;;4966504;28;20133;-84
2021/03/18 11:18:40;;;;;;;26.65;8.25;;;14.20;66.00;;;;;;4965584;28;20053;-85
2021/03/18 11:21:33;;;;;;;17.27;6.30;;;14.30;65.70;;;;;;4961881;28;20096;-84
2021/03/18 11:24:12;;;;;;;10.57;6.18;;;14.40;65.70;;;;;;4976512;28;20072;-84
2021/03/18 11:26:40;;;;;;;15.65;5.97;;;14.50;65.70;;;;;;4963345;28;20501;-85
2021/03/18 11:29:06;;;;;;;13.52;7.40;;;14.60;65.80;;;;;;4959325;28;20879;-83
2021/03/18 11:31:36;;;;;;;15.07;6.72;;;14.70;65.80;;;;;;4963202;28;20141;-84
2021/03/18 11:34:23;;;;;;;12.65;6.32;;;14.80;65.80;;;;;;4979112;28;22747;-83
2021/03/18 11:36:51;;;;;;;12.73;6.28;;;14.80;65.60;;;;;;4947878;28;20045;-83
2021/03/18 11:39:18;;;;;;;11.35;6.25;;;14.90;65.70;;;;;;4949692;28;20034;-83
2021/03/18 11:41:45;;;;;;;13.23;6.45;;;14.90;65.60;;;;;;4949627;28;20092;-83
2021/03/18 11:44:14;;;;;;;15.35;7.03;;;15.00;65.80;;;;;;4961306;28;20030;-83
2021/03/18 11:46:41;;;;;;;11.15;6.03;;;15.10;65.80;;;;;;4960658;28;20033;-84
2021/03/18 11:49:07;;;;;;;11.77;5.85;;;15.10;65.70;;;;;;4962737;28;20030;-83
2021/03/18 11:51:33;;;;;;;12.98;5.80;;;15.20;65.70;;;;;;4959958;28;20486;-83
2021/03/18 11:53:59;;;;;;;11.25;5.43;;;15.30;65.80;;;;;;4945427;28;20027;-82
2021/03/18 11:56:27;;;;;;;14.52;5.80;;;15.40;65.80;;;;;;4963830;28;20066;-81
2021/03/18 11:58:53;;;;;;;13.60;5.72;;;15.50;65.80;;;;;;4959445;28;20085;-83
2021/03/18 12:01:19;;;;;;;13.95;6.00;;;15.60;65.80;;;;;;4914042;28;20088;-85
2021/03/18 12:03:45;;;;;;;11.60;5.15;;;15.60;65.60;;;;;;4962052;28;20141;-85
2021/03/18 12:06:18;;;;;;;12.82;6.55;;;15.70;65.60;;;;;;4961763;28;20034;-84
2021/03/18 12:08:44;;;;;;;12.48;5.47;;;15.80;65.60;;;;;;4964215;28;20450;-82
2021/03/18 12:11:11;;;;;;;11.60;5.10;;;15.90;65.70;;;;;;4945259;28;20034;-83
2021/03/18 12:13:37;;;;;;;16.00;5.53;;;16.00;65.70;;;;;;4965430;28;20044;-84
2021/03/18 12:16:04;;;;;;;11.30;5.25;;;16.00;65.50;;;;;;4964497;28;20437;-82
2021/03/18 12:18:31;;;;;;;12.07;5.18;;;16.10;65.50;;;;;;4963497;28;20037;-82
2021/03/18 12:20:58;;;;;;;10.30;5.65;;;16.20;65.50;;;;;;4946797;28;20398;-80
2021/03/18 12:23:24;;;;;;;9.27;5.20;;;16.20;65.30;;;;;;4963902;28;20037;-80
2021/03/18 12:25:51;;;;;;;12.77;4.78;;;16.30;65.40;;;;;;4964137;28;20676;-81
2021/03/18 12:28:17;;;;;;;6.80;4.35;;;16.30;65.30;;;;;;4962084;28;20109;-80
2021/03/18 12:30:46;;;;;;;13.38;5.00;;;16.40;65.30;;;;;;4963361;28;20042;-81
2021/03/18 12:33:13;;;;;;;14.95;5.00;;;16.50;65.40;;;;;;4961332;28;20524;-81
2021/03/18 12:35:39;;;;;;;8.32;4.32;;;16.60;65.40;;;;;;4980544;28;20380;-78
2021/03/18 12:38:08;;;;;;;9.52;4.85;;;16.70;65.50;;;;;;4983659;28;20034;-81
2021/03/18 12:40:37;;;;;;;9.30;4.35;;;16.80;65.50;;;;;;4999962;28;20056;-80
2021/03/18 12:43:11;;;;;;;11.13;4.35;;;16.80;65.30;;;;;;4998522;28;20030;-81
2021/03/18 12:45:44;;;;;;;6.57;4.20;;;16.90;65.30;;;;;;4988617;28;20042;-82
2021/03/18 12:48:11;;;;;;;12.13;5.00;;;17.00;65.80;;;;;;4970532;28;20265;-81
2021/03/18 12:50:38;;;;;;;7.25;3.63;;;17.10;65.40;;;;;;5005531;28;20038;-80
2021/03/18 12:53:04;;;;;;;8.05;3.88;;;17.20;65.40;;;;;;5016970;28;20110;-85
2021/03/18 12:55:30;;;;;;;8.55;3.90;;;17.20;65.30;;;;;;5004701;28;20049;-84
2021/03/18 12:57:57;;;;;;;10.07;5.05;;;17.30;65.30;;;;;;5019214;28;20540;-84
2021/03/18 13:00:30;;;;;;;9.07;5.07;;;17.40;65.30;;;;;;5000473;28;20053;-83
2021/03/18 13:02:57;;;;;;;9.43;4.10;;;17.50;65.20;;;;;;4989957;28;20053;-83
2021/03/18 13:05:54;;;;;;;7.97;4.55;;;17.50;65.10;;;;;;4990831;28;20437;-88
2021/03/18 13:08:20;;;;;;;7.38;4.55;;;17.50;64.80;;;;;;4965757;28;20040;-91